createdAt,value
2023-04-12T00:04:27.756Z,0.73
2023-04-12T00:09:36.687Z,1.38
2023-04-12T00:14:40.221Z,1.35
2023-04-12T00:19:45.960Z,0.90
2023-04-12T00:24:49.228Z,1.10
2023-04-12T00:29:52.659Z,1.20
2023-04-12T00:34:57.418Z,0.90
2023-04-12T00:40:00.846Z,0.90
2023-04-12T00:45:04.739Z,0.90
2023-04-12T00:50:11.013Z,1.40
2023-04-12T00:55:16.549Z,1.10
2023-04-12T01:00:22.644Z,1.05
2023-04-12T01:05:31.063Z,1.23
2023-04-12T01:10:42.867Z,0.73
2023-04-12T01:15:52.168Z,1.00
2023-04-12T01:21:02.581Z,1.17
2023-04-12T01:26:17.940Z,1.00
2023-04-12T01:31:26.285Z,1.00
2023-04-12T01:36:30.952Z,1.50
2023-04-12T01:41:35.174Z,1.50
2023-04-12T01:46:40.409Z,1.52
2023-04-12T01:51:51.389Z,1.48
2023-04-12T01:56:58.910Z,1.40
2023-04-12T02:02:04.243Z,1.20
2023-04-12T02:07:07.996Z,1.17
2023-04-12T02:12:11.304Z,1.48
2023-04-12T02:17:16.076Z,1.30
2023-04-12T02:22:19.251Z,1.48
2023-04-12T02:27:22.582Z,1.27
2023-04-12T02:32:27.433Z,1.10
2023-04-12T02:37:31.755Z,1.35
2023-04-12T02:42:35.664Z,1.08
2023-04-12T02:47:41.011Z,1.00
2023-04-12T02:52:44.454Z,1.30
2023-04-12T02:57:47.755Z,1.73
2023-04-12T03:02:52.962Z,1.60
2023-04-12T03:07:56.655Z,1.80
2023-04-12T03:12:59.957Z,2.40
2023-04-12T03:18:07.317Z,1.83
2023-04-12T03:23:13.692Z,2.80
2023-04-12T03:28:16.992Z,2.55
2023-04-12T03:33:21.963Z,3.22
2023-04-12T03:38:25.267Z,4.40
2023-04-12T03:43:28.751Z,4.13
2023-04-12T03:48:33.535Z,2.28
2023-04-12T03:53:37.095Z,1.50
2023-04-12T03:58:40.983Z,1.20
2023-04-12T04:03:48.572Z,1.10
2023-04-12T04:08:52.240Z,1.30
2023-04-12T04:13:56.123Z,1.40
2023-04-12T04:19:00.920Z,1.40
2023-04-12T04:24:04.318Z,1.52
2023-04-12T04:29:07.649Z,1.10
2023-04-12T04:34:13.732Z,1.30
2023-04-12T04:39:17.290Z,0.98
2023-04-12T04:44:20.523Z,0.95
2023-04-12T04:49:25.377Z,0.70
2023-04-12T04:54:28.637Z,0.52
2023-04-12T04:59:33.998Z,0.85
2023-04-12T05:04:38.983Z,0.93
2023-04-12T05:09:43.107Z,1.23
2023-04-12T05:14:51.607Z,1.10
2023-04-12T05:19:56.894Z,1.15
2023-04-12T05:25:00.221Z,1.08
2023-04-12T05:30:05.468Z,0.93
2023-04-12T05:35:11.787Z,0.90
2023-04-12T05:40:19.237Z,0.70
2023-04-12T05:45:22.552Z,0.98
2023-04-12T05:50:51.798Z,1.05
2023-04-12T05:55:55.530Z,1.30
2023-04-12T06:01:00.237Z,0.70
2023-04-12T06:06:06.528Z,1.20
2023-04-12T06:11:12.586Z,1.00
2023-04-12T06:16:17.581Z,0.90
2023-04-12T06:21:27.269Z,0.80
2023-04-12T06:26:38.913Z,0.90
2023-04-12T06:31:43.655Z,1.38
2023-04-12T06:36:49.542Z,0.88
2023-04-12T06:41:57.815Z,0.57
2023-04-12T06:47:02.768Z,0.90
2023-04-12T06:52:15.982Z,0.80
2023-04-12T06:57:28.065Z,0.77
2023-04-12T07:02:39.546Z,1.60
2023-04-12T07:07:50.300Z,1.58
2023-04-12T07:12:55.278Z,1.10
2023-04-12T07:17:59.345Z,2.35
2023-04-12T07:23:04.790Z,0.90
2023-04-12T07:28:23.221Z,0.90
2023-04-12T07:33:42.939Z,0.90
2023-04-12T07:38:49.375Z,0.75
2023-04-12T07:43:53.254Z,0.77
2023-04-12T07:48:57.138Z,0.77
2023-04-12T07:54:01.797Z,0.70
2023-04-12T07:59:05.210Z,0.80
2023-04-12T08:04:10.255Z,0.95
2023-04-12T08:09:15.043Z,0.85
2023-04-12T08:14:23.963Z,0.80
2023-04-12T08:19:28.929Z,0.50
2023-04-12T08:24:33.939Z,0.77
2023-04-12T08:29:42.577Z,0.50
2023-04-12T08:34:49.670Z,0.50
2023-04-12T08:39:55.597Z,0.47
2023-04-12T08:44:59.771Z,0.57
2023-04-12T08:50:06.638Z,0.55
2023-04-12T08:55:14.710Z,0.70
2023-04-12T09:05:48.804Z,0.80
2023-04-12T09:10:56.021Z,0.80
2023-04-12T09:15:59.386Z,0.60
2023-04-12T09:21:11.940Z,0.80
2023-04-12T09:26:30.388Z,0.63
2023-04-12T09:31:33.875Z,0.80
2023-04-12T09:36:41.819Z,0.68
2023-04-12T09:41:49.771Z,1.17
2023-04-12T09:46:53.442Z,0.98
2023-04-12T09:51:59.599Z,1.38
2023-04-12T09:57:10.148Z,0.70
2023-04-12T10:02:17.834Z,0.68
2023-04-12T10:07:25.493Z,0.82
2023-04-12T10:12:30.623Z,0.90
2023-04-12T10:17:36.066Z,0.73
2023-04-12T10:22:41.870Z,0.70
2023-04-12T10:27:49.521Z,0.50
2023-04-12T10:33:17.639Z,0.57
2023-04-12T10:38:21.422Z,0.63
2023-04-12T10:43:30.909Z,0.70
2023-04-12T10:48:35.534Z,0.73
2023-04-12T10:53:40.842Z,0.70
2023-04-12T10:59:01.069Z,0.50
2023-04-12T11:04:21.281Z,0.70
2023-04-12T11:09:28.618Z,0.60
2023-04-12T11:14:36.857Z,0.57
2023-04-12T11:19:43.042Z,0.43
2023-04-12T11:24:48.380Z,0.60
2023-04-12T11:29:54.582Z,0.60
2023-04-12T11:35:01.734Z,0.57
2023-04-12T11:40:06.633Z,0.38
2023-04-12T11:45:20.901Z,0.50
2023-04-12T11:50:33.974Z,0.55
2023-04-12T11:55:42.874Z,0.30
2023-04-12T12:00:47.817Z,0.30
2023-04-12T12:05:53.714Z,0.40
2023-04-12T12:11:07.282Z,0.40
2023-04-12T12:16:19.403Z,0.40
2023-04-12T12:21:23.203Z,0.68
2023-04-12T12:26:31.362Z,0.40
2023-04-12T12:31:36.841Z,0.35
2023-04-12T12:36:40.338Z,0.45
2023-04-12T12:41:44.367Z,0.25
2023-04-12T12:46:58.758Z,0.30
2023-04-12T12:57:38.634Z,0.30
2023-04-12T13:02:45.179Z,0.30
2023-04-12T13:07:50.045Z,0.30
2023-04-12T13:12:53.347Z,0.45
2023-04-12T13:17:59.102Z,0.30
2023-04-12T13:23:02.478Z,0.20
2023-04-12T13:28:06.234Z,0.30
2023-04-12T13:33:14.273Z,0.43
2023-04-12T13:38:21.089Z,0.28
2023-04-12T13:43:24.391Z,0.30
2023-04-12T13:48:29.447Z,0.32
2023-04-12T13:53:32.933Z,0.30
2023-04-12T13:58:36.277Z,0.30
2023-04-12T14:03:41.498Z,0.20
2023-04-12T14:08:46.459Z,0.28
2023-04-12T14:13:51.403Z,0.43
2023-04-12T14:18:57.193Z,0.20
2023-04-12T14:35:48.346Z,0.20
2023-04-12T14:40:53.588Z,0.40
2023-04-12T14:45:58.291Z,0.20
2023-04-12T14:51:03.731Z,0.50
2023-04-12T14:56:21.030Z,0.20
2023-04-12T15:01:35.724Z,0.25
2023-04-12T15:06:42.861Z,0.32
2023-04-12T15:12:01.751Z,0.20
2023-04-12T15:17:07.326Z,0.20
2023-04-12T15:22:14.431Z,0.30
2023-04-12T15:27:45.042Z,0.20
2023-04-12T15:32:51.577Z,0.30
2023-04-12T15:37:56.730Z,0.10
2023-04-12T15:43:20.390Z,0.20
2023-04-12T15:48:46.503Z,0.20
2023-04-12T15:53:51.703Z,0.17
2023-04-12T15:58:58.248Z,0.20
2023-04-12T16:04:04.739Z,0.50
2023-04-12T16:14:43.504Z,0.30
2023-04-12T16:19:51.296Z,0.28
2023-04-12T16:24:59.115Z,0.38
2023-04-12T16:30:04.536Z,0.28
2023-04-12T16:35:11.151Z,0.30
2023-04-12T16:40:33.235Z,0.25
2023-04-12T16:45:45.745Z,0.30
2023-04-12T16:50:51.531Z,0.20
2023-04-12T16:56:14.424Z,0.50
2023-04-12T17:01:24.967Z,0.22
2023-04-12T17:06:32.848Z,0.20
2023-04-12T17:11:39.400Z,0.15
2023-04-12T17:16:43.441Z,0.30
2023-04-12T17:21:48.772Z,0.35
2023-04-12T17:26:56.019Z,0.30
2023-04-12T17:32:08.583Z,0.40
2023-04-12T17:37:12.834Z,0.30
2023-04-12T17:42:19.170Z,0.40
2023-04-12T17:47:27.302Z,0.50
2023-04-12T17:52:31.553Z,0.55
2023-04-12T17:57:37.902Z,0.50
2023-04-12T18:02:42.426Z,0.50
2023-04-12T18:07:46.949Z,0.55
2023-04-12T18:12:53.310Z,0.40
2023-04-12T18:17:57.553Z,0.50
2023-04-12T18:23:02.043Z,0.70
2023-04-12T18:28:10.232Z,0.60
2023-04-12T18:33:14.430Z,0.75
2023-04-12T18:38:19.288Z,0.77
2023-04-12T18:43:24.336Z,0.70
2023-04-12T18:48:28.903Z,0.73
2023-04-12T18:53:36.222Z,1.08
2023-04-12T18:58:58.763Z,0.50
2023-04-12T19:04:07.051Z,0.63
2023-04-12T19:09:10.722Z,0.50
2023-04-12T19:14:15.750Z,0.85
2023-04-12T19:19:20.757Z,0.70
2023-04-12T19:24:29.562Z,0.75
2023-04-12T19:29:36.021Z,0.70
2023-04-12T19:34:39.732Z,0.65
2023-04-12T19:39:49.817Z,0.75
2023-04-12T19:45:09.677Z,0.57
2023-04-12T19:50:17.627Z,0.50
2023-04-12T19:55:38.757Z,0.40
2023-04-12T20:00:59.076Z,0.32
2023-04-12T20:06:11.812Z,0.50
2023-04-12T20:11:25.552Z,0.40
2023-04-12T20:16:38.424Z,0.47
2023-04-12T20:21:53.176Z,0.40
2023-04-12T20:27:00.951Z,0.40
2023-04-12T20:32:12.323Z,0.50
2023-04-12T20:37:17.468Z,0.85
2023-04-12T20:42:23.047Z,0.73
2023-04-12T20:47:38.404Z,0.38
2023-04-12T20:52:48.799Z,0.40
2023-04-12T20:57:56.561Z,0.38
2023-04-12T21:03:03.413Z,0.38
2023-04-12T21:08:07.872Z,0.40
2023-04-12T21:13:14.774Z,0.35
2023-04-12T21:18:21.744Z,0.50
2023-04-12T21:23:32.131Z,0.40
2023-04-12T21:28:41.397Z,0.20
2023-04-12T21:33:52.019Z,0.20
2023-04-12T21:38:58.329Z,0.30
2023-04-12T21:44:05.975Z,0.20
2023-04-12T21:49:15.585Z,0.22
2023-04-12T21:54:21.126Z,0.30
2023-04-12T21:59:26.562Z,0.20
2023-04-12T22:04:31.852Z,0.28
2023-04-12T22:10:06.054Z,0.20
2023-04-12T22:15:12.463Z,0.30
2023-04-12T22:20:19.455Z,0.30
2023-04-12T22:25:24.174Z,0.20
2023-04-12T22:30:37.353Z,0.30
2023-04-12T22:35:42.740Z,0.22
2023-04-12T22:41:03.513Z,0.30
2023-04-12T22:46:16.057Z,0.32
2023-04-12T22:51:31.291Z,0.40
2023-04-12T22:56:48.186Z,0.30
2023-04-12T23:02:07.950Z,0.40
2023-04-12T23:07:15.008Z,0.40
2023-04-12T23:12:20.002Z,0.35
2023-04-12T23:17:28.890Z,0.40
2023-04-12T23:22:55.117Z,0.40
2023-04-12T23:28:01.228Z,0.40
2023-04-12T23:33:09.688Z,0.30
2023-04-12T23:38:23.110Z,0.40
2023-04-12T23:43:28.432Z,0.40
2023-04-12T23:48:33.811Z,0.30
2023-04-12T23:53:38.997Z,0.30
2023-04-12T23:58:42.772Z,0.40
